LETOLEGT

Guest
Details From LETO - Torrejon
To LEGT - Getafe
Flight Number -
Tags generated
Created
Modified
Stats Distance 20 nm / 36 km
Max Altitude 2,000 ft / 610 m
Waypoints 3
Social Downloads 2
Likes 0
Share VATSIM

Download

Looking for another format? Having issues loading an existing format? Contact us
Advertisement - Login to hide

Notes

Basic altitude profile: - Ascent Rate: 2500ft/min - Ascent Speed: 250kts - Cruise Altitude: 35000ft - Cruise Speed: 420kts - Descent Rate: 1500ft/min - Descent Speed: 250kts Options: - Use NATs: yes - Use PACOTS: yes - Use low airways: yes - Use high airways: no

Route

LETO BOSIO LEGT

ID Type Via Altitude Latitude Longitude Leg Dist Tot Dist Heading (true) Name
O LETO APT - 0 ft / 0 m 40.49675˚ -3.44587˚ - 0 nm - Torrejon
BOSIO FIX - 2,000 ft / 610 m 40.34086˚ -3.52057˚ 9 nm 9 nm 200° / 200° -
O LEGT APT - 0 ft / 0 m 40.29315˚ -3.72248˚ 9 nm 19 nm 253° / 253° Getafe

Altitude Profile

Advertisement - Login to hide

LETO

Details ICAO LETO (TOJ)
Name Torrejon
Region Spain
Timezone Europe/Madrid (UTC+1.0)
Stats Elevation 2,025 ft / 617 m (AMSL)
Location 40.496746° -3.445870°
Runways 1
Magnetic Variation 0.652° W

METAR

LETO 161300Z 35012KT 320V020 9999 FEW050 10/M01 Q1021 NOSIG

Decode

TAF

TAF LETO 161100Z 1612/1712 01013KT CAVOK TX11/1615Z TNM02/1707Z TEMPO 1612/1619 01014G24KT

Decode

Departure Runways

ID Width Length Bearing (true) Bearing (mag) Surface Threshold Offset Overrun Length
05 217 ft / 66 m 12,004 ft / 3,659 m 43.28° 43.93° Asphalt 0 ft / 0 m 2,739 ft / 835 m
23 217 ft / 66 m 12,004 ft / 3,659 m 223.30° 223.95° Asphalt 0 ft / 0 m 1,066 ft / 325 m

LEGT

Details ICAO LEGT
Name Getafe
Region Spain
Timezone Europe/Madrid (UTC+1.0)
Stats Elevation 2,029 ft / 618 m (AMSL)
Location 40.293152° -3.722481°
Runways 2
Magnetic Variation 0.726° W

METAR

LEGT 161300Z 31002KT 9999 FEW040 SCT050 09/M02 Q1021

Decode

TAF

Not found

Destination Runways

ID Width Length Bearing (true) Bearing (mag) Surface Threshold Offset Overrun Length
05 197 ft / 60 m 8,130 ft / 2,478 m 45.08° 45.81° Asphalt 0 ft / 0 m 410 ft / 125 m
05R 98 ft / 30 m 3,093 ft / 943 m 44.78° 45.51° Dirt 0 ft / 0 m 0 ft / 0 m
23 197 ft / 60 m 8,130 ft / 2,478 m 225.10° 225.83° Asphalt 0 ft / 0 m 492 ft / 150 m
23L 98 ft / 30 m 3,093 ft / 943 m 224.79° 225.52° Dirt 0 ft / 0 m 0 ft / 0 m

Approach Navaids

Runway Type Ident Frequency Range Bearing (true) Bearing (mag) Slope Elevation
05 Localiser IGE 110.90 MHz 18 nm / 33 km 45.09° 45.82° - 2,029 ft / 618 m (AMSL)
05 Glidescope IGE 110.90 MHz 10 nm / 19 km 45.09° 45.82° 2.80° 2,029 ft / 618 m (AMSL)